createdAt,value
2022-08-16T00:01:26.490Z,18.40
2022-08-16T00:03:59.910Z,18.40
2022-08-16T00:06:29.415Z,18.30
2022-08-16T00:08:57.543Z,18.30
2022-08-16T00:11:26.546Z,18.30
2022-08-16T00:13:55.436Z,18.20
2022-08-16T00:17:01.025Z,18.20
2022-08-16T00:19:15.955Z,18.20
2022-08-16T00:21:46.615Z,18.20
2022-08-16T00:24:31.439Z,18.10
2022-08-16T00:27:01.346Z,18.00
2022-08-16T00:29:30.255Z,18.00
2022-08-16T00:32:05.493Z,18.00
2022-08-16T00:34:43.343Z,17.90
2022-08-16T00:37:24.392Z,17.90
2022-08-16T00:39:57.514Z,17.80
2022-08-16T00:42:30.423Z,17.80
2022-08-16T00:45:08.160Z,17.80
2022-08-16T00:47:42.688Z,17.80
2022-08-16T00:50:21.767Z,17.70
2022-08-16T00:53:05.123Z,17.70
2022-08-16T00:55:37.797Z,17.60
2022-08-16T00:58:12.982Z,17.60
2022-08-16T01:00:45.613Z,17.60
2022-08-16T01:03:30.018Z,17.50
2022-08-16T01:06:00.875Z,17.50
2022-08-16T01:08:52.960Z,17.50
2022-08-16T01:11:23.695Z,17.40
2022-08-16T01:13:56.957Z,17.40
2022-08-16T01:16:28.432Z,17.30
2022-08-16T01:19:02.587Z,17.30
2022-08-16T01:21:41.011Z,17.30
2022-08-16T01:24:44.614Z,17.20
2022-08-16T01:27:14.996Z,17.20
2022-08-16T01:29:57.803Z,17.20
2022-08-16T01:32:31.504Z,17.10
2022-08-16T01:35:03.070Z,17.10
2022-08-16T01:37:38.989Z,17.00
2022-08-16T01:40:13.347Z,17.00
2022-08-16T01:42:44.537Z,16.90
2022-08-16T01:45:19.663Z,16.90
2022-08-16T01:47:51.048Z,16.90
2022-08-16T01:50:42.245Z,16.90
2022-08-16T01:53:11.956Z,16.90
2022-08-16T01:55:42.895Z,16.80
2022-08-16T01:58:23.957Z,16.80
2022-08-16T02:00:52.059Z,16.80
2022-08-16T02:03:24.459Z,16.70
2022-08-16T02:05:55.062Z,16.70
2022-08-16T02:08:33.561Z,16.70
2022-08-16T02:11:08.693Z,16.70
2022-08-16T02:13:36.817Z,16.60
2022-08-16T02:16:18.690Z,16.50
2022-08-16T02:18:47.298Z,16.50
2022-08-16T02:21:16.561Z,16.50
2022-08-16T02:23:45.024Z,16.50
2022-08-16T02:26:17.025Z,16.40
2022-08-16T02:28:47.324Z,16.40
2022-08-16T02:31:16.777Z,16.40
2022-08-16T02:33:49.968Z,16.40
2022-08-16T02:36:47.401Z,16.40
2022-08-16T02:39:09.583Z,16.30
2022-08-16T02:41:41.269Z,16.30
2022-08-16T02:44:11.329Z,16.30
2022-08-16T02:46:49.806Z,16.30
2022-08-16T02:49:21.898Z,16.30
2022-08-16T02:52:00.329Z,16.20
2022-08-16T02:54:29.149Z,16.20
2022-08-16T02:56:58.653Z,16.20
2022-08-16T02:59:27.669Z,16.20
2022-08-16T03:02:08.944Z,16.20
2022-08-16T03:04:50.859Z,16.20
2022-08-16T03:07:27.475Z,16.10
2022-08-16T03:10:00.543Z,16.10
2022-08-16T03:12:37.778Z,16.10
2022-08-16T03:15:07.190Z,16.10
2022-08-16T03:17:36.859Z,16.00
2022-08-16T03:20:21.653Z,16.00
2022-08-16T03:23:01.877Z,15.90
2022-08-16T03:25:44.691Z,15.90
2022-08-16T03:28:17.826Z,15.90
2022-08-16T03:30:46.246Z,15.90
2022-08-16T03:33:15.874Z,15.90
2022-08-16T03:35:44.016Z,15.80
2022-08-16T03:38:34.445Z,15.80
2022-08-16T03:41:05.568Z,15.80
2022-08-16T03:43:54.683Z,15.70
2022-08-16T03:46:45.084Z,15.70
2022-08-16T03:49:12.261Z,15.70
2022-08-16T03:51:41.577Z,15.60
2022-08-16T03:54:12.246Z,15.60
2022-08-16T03:56:58.107Z,15.60
2022-08-16T03:59:29.672Z,15.60
2022-08-16T04:01:58.431Z,15.60
2022-08-16T04:04:33.414Z,15.50
2022-08-16T04:07:04.221Z,15.60
2022-08-16T04:09:35.488Z,15.50
2022-08-16T04:12:04.251Z,15.50
2022-08-16T04:14:46.732Z,15.60
2022-08-16T04:17:16.402Z,15.60
2022-08-16T04:19:46.683Z,15.60
2022-08-16T04:22:17.362Z,15.60
2022-08-16T04:24:54.861Z,15.60
2022-08-16T04:27:24.629Z,15.60
2022-08-16T04:30:03.409Z,15.70
2022-08-16T04:32:31.910Z,15.70
2022-08-16T04:35:02.259Z,15.70
2022-08-16T04:37:32.825Z,15.80
2022-08-16T04:40:12.371Z,15.80
2022-08-16T04:42:50.684Z,15.80
2022-08-16T04:45:35.643Z,15.90
2022-08-16T04:48:04.923Z,15.90
2022-08-16T04:50:33.053Z,16.00
2022-08-16T04:53:01.438Z,16.10
2022-08-16T04:55:37.827Z,16.20
2022-08-16T04:58:43.670Z,16.30
2022-08-16T05:00:56.942Z,16.40
2022-08-16T05:03:26.062Z,16.60
2022-08-16T05:05:59.037Z,16.70
2022-08-16T05:08:32.845Z,16.80
2022-08-16T05:11:05.726Z,17.00
2022-08-16T05:13:41.679Z,17.10
2022-08-16T05:16:19.958Z,17.20
2022-08-16T05:18:49.006Z,17.30
2022-08-16T05:21:17.122Z,17.50
2022-08-16T05:23:55.627Z,17.70
2022-08-16T05:26:27.849Z,18.00
2022-08-16T05:28:56.991Z,18.30
2022-08-16T05:31:29.799Z,18.50
2022-08-16T05:34:00.121Z,18.60
2022-08-16T05:36:34.279Z,18.70
2022-08-16T05:39:06.697Z,18.80
2022-08-16T05:41:44.808Z,19.00
2022-08-16T05:44:23.010Z,19.10
2022-08-16T05:46:56.123Z,19.40
2022-08-16T05:49:24.577Z,19.50
2022-08-16T05:51:55.681Z,19.70
2022-08-16T05:54:25.751Z,19.80
2022-08-16T05:56:54.580Z,19.90
2022-08-16T05:59:24.184Z,20.00
2022-08-16T06:01:52.513Z,20.10
2022-08-16T06:04:34.966Z,20.10
2022-08-16T06:07:08.887Z,20.10
2022-08-16T06:09:43.838Z,20.10
2022-08-16T06:12:27.005Z,20.20
2022-08-16T06:14:59.690Z,20.40
2022-08-16T06:17:41.189Z,20.50
2022-08-16T06:20:18.378Z,20.70
2022-08-16T06:22:57.401Z,20.80
2022-08-16T06:25:36.108Z,21.00
2022-08-16T06:28:08.475Z,21.20
2022-08-16T06:30:43.972Z,21.40
2022-08-16T06:33:19.607Z,21.60
2022-08-16T06:35:49.603Z,21.70
2022-08-16T06:38:32.338Z,21.80
2022-08-16T06:41:03.837Z,22.00
2022-08-16T06:43:32.359Z,22.20
2022-08-16T06:46:00.765Z,22.20
2022-08-16T06:48:33.928Z,22.30
2022-08-16T06:51:04.700Z,22.40
2022-08-16T06:53:35.718Z,22.50
2022-08-16T06:56:13.987Z,22.80
2022-08-16T06:58:46.806Z,22.90
2022-08-16T07:01:15.932Z,23.00
2022-08-16T07:03:55.581Z,23.10
2022-08-16T07:06:27.365Z,23.10
2022-08-16T07:08:55.996Z,23.20
2022-08-16T07:11:47.565Z,23.10
2022-08-16T07:14:26.265Z,23.10
2022-08-16T07:16:57.858Z,23.20
2022-08-16T07:20:01.476Z,23.30
2022-08-16T07:22:37.811Z,23.40
2022-08-16T07:25:06.701Z,23.50
2022-08-16T07:27:37.363Z,23.60
2022-08-16T07:30:39.173Z,23.70
2022-08-16T07:32:56.746Z,23.90
2022-08-16T07:35:25.646Z,24.00
2022-08-16T07:37:55.364Z,24.10
2022-08-16T07:40:49.291Z,24.20
2022-08-16T07:43:11.959Z,24.20
2022-08-16T07:45:42.801Z,24.20
2022-08-16T07:48:12.665Z,24.40
2022-08-16T07:50:56.867Z,24.60
2022-08-16T07:53:29.448Z,24.70
2022-08-16T07:55:59.309Z,24.90
2022-08-16T07:58:34.476Z,25.00
2022-08-16T08:01:10.441Z,25.10
2022-08-16T08:03:47.613Z,25.20
2022-08-16T08:06:18.203Z,25.00
2022-08-16T08:08:51.700Z,24.90
2022-08-16T08:11:23.606Z,25.00
2022-08-16T08:13:54.013Z,25.20
2022-08-16T08:16:30.473Z,25.40
2022-08-16T08:19:00.946Z,25.60
2022-08-16T08:22:01.254Z,25.70
2022-08-16T08:24:22.864Z,25.80
2022-08-16T08:27:02.199Z,26.00
2022-08-16T08:29:36.930Z,25.90
2022-08-16T08:33:01.823Z,26.10
2022-08-16T08:34:55.929Z,26.30
2022-08-16T08:37:51.151Z,26.50
2022-08-16T08:40:24.279Z,26.70
2022-08-16T08:42:57.641Z,26.40
2022-08-16T08:45:48.345Z,26.50
2022-08-16T08:48:33.380Z,26.70
2022-08-16T08:51:03.873Z,26.70
2022-08-16T08:53:32.888Z,27.00
2022-08-16T08:56:23.543Z,26.90
2022-08-16T08:58:54.067Z,26.90
2022-08-16T09:01:31.994Z,26.80
2022-08-16T09:04:06.240Z,26.90
2022-08-16T09:06:35.278Z,27.20
2022-08-16T09:09:04.655Z,27.40
2022-08-16T09:11:41.045Z,27.60
2022-08-16T09:14:23.978Z,27.80
2022-08-16T09:17:03.356Z,27.80
2022-08-16T09:19:34.272Z,27.90
2022-08-16T09:22:03.317Z,28.10
2022-08-16T09:24:52.008Z,28.20
2022-08-16T09:27:23.522Z,28.40
2022-08-16T09:30:00.245Z,28.60
2022-08-16T09:32:30.910Z,28.80
2022-08-16T09:34:59.892Z,28.90
2022-08-16T09:37:30.045Z,28.90
2022-08-16T09:40:17.967Z,28.90
2022-08-16T09:42:59.423Z,28.50
2022-08-16T09:45:29.191Z,28.30
2022-08-16T09:47:58.741Z,28.20
2022-08-16T09:50:37.124Z,28.30
2022-08-16T09:53:15.182Z,28.20
2022-08-16T09:55:49.501Z,28.30
2022-08-16T09:58:40.857Z,28.30
2022-08-16T10:01:11.043Z,28.40
2022-08-16T10:04:02.821Z,28.50
2022-08-16T10:06:33.366Z,28.60
2022-08-16T10:09:05.982Z,28.60
2022-08-16T10:11:52.750Z,28.50
2022-08-16T10:14:24.921Z,28.30
2022-08-16T10:17:03.555Z,28.00
2022-08-16T10:19:33.389Z,28.10
2022-08-16T10:22:04.955Z,28.30
2022-08-16T10:24:33.921Z,28.20
2022-08-16T10:27:25.798Z,27.90
2022-08-16T10:30:00.143Z,27.90
2022-08-16T10:32:35.093Z,27.80
2022-08-16T10:35:03.825Z,27.50
2022-08-16T10:37:32.592Z,27.40
2022-08-16T10:40:28.463Z,27.50
2022-08-16T10:42:55.222Z,27.30
2022-08-16T10:45:25.464Z,27.40
2022-08-16T10:48:02.979Z,27.60
2022-08-16T10:50:33.388Z,27.80
2022-08-16T10:53:07.470Z,28.00
2022-08-16T10:55:40.887Z,27.90
2022-08-16T10:58:17.090Z,27.90
2022-08-16T11:00:48.037Z,28.10
2022-08-16T11:06:07.444Z,28.40
2022-08-16T11:08:43.390Z,28.60
2022-08-16T11:11:19.378Z,28.50
2022-08-16T11:13:58.653Z,28.50
2022-08-16T11:19:17.745Z,28.40
2022-08-16T11:24:43.164Z,28.40
2022-08-16T11:27:20.164Z,28.30
2022-08-16T11:29:49.551Z,28.20
2022-08-16T11:32:20.373Z,28.10
2022-08-16T11:35:10.544Z,28.00
2022-08-16T11:40:38.800Z,27.90
2022-08-16T11:43:10.174Z,27.90
2022-08-16T11:45:38.790Z,27.90
2022-08-16T11:48:12.267Z,27.90
2022-08-16T11:50:40.510Z,27.90
2022-08-16T11:53:08.993Z,27.90
2022-08-16T11:55:38.500Z,28.00
2022-08-16T11:58:08.345Z,28.30
2022-08-16T12:00:51.219Z,28.40
2022-08-16T12:03:35.212Z,28.50
2022-08-16T12:06:10.691Z,28.60
2022-08-16T12:08:41.330Z,28.60
2022-08-16T12:11:11.603Z,28.60
2022-08-16T12:13:40.557Z,28.60
2022-08-16T12:16:09.396Z,28.50
2022-08-16T12:18:40.273Z,28.40
2022-08-16T12:21:09.731Z,28.50
2022-08-16T12:23:38.358Z,28.60
2022-08-16T12:26:10.287Z,28.70
2022-08-16T12:28:56.210Z,28.70
2022-08-16T12:31:25.945Z,28.90
2022-08-16T12:33:57.476Z,29.00
2022-08-16T12:36:30.144Z,28.70
2022-08-16T12:38:59.477Z,28.50
2022-08-16T12:41:27.525Z,28.60
2022-08-16T12:43:56.830Z,28.50
2022-08-16T12:46:27.530Z,28.40
2022-08-16T12:48:59.787Z,28.20
2022-08-16T12:51:33.025Z,28.20
2022-08-16T12:54:20.372Z,28.20
2022-08-16T12:56:50.365Z,28.20
2022-08-16T12:59:21.883Z,28.40
2022-08-16T13:01:55.444Z,28.60
2022-08-16T13:04:28.055Z,28.70
2022-08-16T13:09:32.927Z,28.50
2022-08-16T13:12:19.305Z,28.70
2022-08-16T13:14:49.926Z,28.90
2022-08-16T13:17:21.821Z,28.80
2022-08-16T13:20:11.015Z,28.50
2022-08-16T13:22:42.946Z,28.40
2022-08-16T13:25:19.422Z,28.50
2022-08-16T13:28:14.889Z,28.50
2022-08-16T13:30:41.168Z,28.60
2022-08-16T13:33:12.482Z,28.70
2022-08-16T13:35:45.258Z,28.50
2022-08-16T13:38:24.966Z,28.60
2022-08-16T13:40:55.869Z,28.70
2022-08-16T13:43:25.087Z,28.60
2022-08-16T13:45:55.289Z,28.60
2022-08-16T13:48:25.147Z,28.70
2022-08-16T13:50:56.322Z,29.00
2022-08-16T13:53:25.423Z,29.20
2022-08-16T13:55:59.135Z,29.30
2022-08-16T13:58:36.662Z,29.00
2022-08-16T14:01:09.884Z,28.90
2022-08-16T14:03:39.672Z,28.80
2022-08-16T14:06:10.828Z,28.70
2022-08-16T14:08:41.991Z,28.60
2022-08-16T14:11:12.382Z,28.60
2022-08-16T14:13:42.178Z,28.60
2022-08-16T14:16:12.727Z,28.60
2022-08-16T14:18:52.696Z,28.50
2022-08-16T14:21:23.716Z,28.50
2022-08-16T14:23:52.486Z,28.50
2022-08-16T14:26:21.355Z,28.50
2022-08-16T14:28:51.060Z,28.50
2022-08-16T14:31:20.017Z,28.50
2022-08-16T14:33:48.371Z,28.50
2022-08-16T14:36:18.878Z,28.50
2022-08-16T14:38:59.030Z,28.60
2022-08-16T14:41:27.628Z,28.60
2022-08-16T14:43:56.768Z,28.50
2022-08-16T14:46:25.314Z,28.60
2022-08-16T14:48:53.955Z,28.70
2022-08-16T14:51:23.382Z,28.70
2022-08-16T14:53:56.890Z,28.70
2022-08-16T14:56:38.429Z,28.80
2022-08-16T14:59:11.018Z,29.00
2022-08-16T15:01:58.670Z,29.00
2022-08-16T15:04:32.444Z,29.10
2022-08-16T15:07:11.327Z,29.00
2022-08-16T15:09:44.225Z,28.80
2022-08-16T15:12:31.038Z,28.70
2022-08-16T15:15:12.489Z,28.50
2022-08-16T15:17:42.314Z,28.50
2022-08-16T15:20:26.234Z,28.50
2022-08-16T15:22:54.861Z,28.70
2022-08-16T15:25:29.647Z,28.80
2022-08-16T15:28:02.281Z,28.90
2022-08-16T15:30:56.546Z,29.00
2022-08-16T15:33:23.251Z,29.20
2022-08-16T15:35:57.954Z,29.40
2022-08-16T15:38:57.255Z,29.40
2022-08-16T15:41:35.944Z,29.20
2022-08-16T15:44:10.687Z,29.00
2022-08-16T15:46:54.768Z,28.80
2022-08-16T15:49:25.150Z,28.70
2022-08-16T15:51:53.888Z,28.60
2022-08-16T15:54:30.888Z,28.50
2022-08-16T15:57:11.998Z,28.50
2022-08-16T15:59:49.339Z,28.50
2022-08-16T16:02:29.797Z,28.40
2022-08-16T16:05:01.826Z,28.40
2022-08-16T16:07:31.097Z,28.30
2022-08-16T16:10:00.058Z,28.20
2022-08-16T16:15:19.955Z,27.80
2022-08-16T16:17:52.307Z,27.60
2022-08-16T16:20:21.327Z,27.50
2022-08-16T16:22:49.923Z,27.30
2022-08-16T16:25:18.997Z,27.20
2022-08-16T16:27:55.545Z,27.00
2022-08-16T16:30:44.349Z,26.90
2022-08-16T16:33:20.929Z,26.90
2022-08-16T16:35:55.190Z,26.90
2022-08-16T16:38:30.839Z,27.00
2022-08-16T16:41:00.511Z,27.10
2022-08-16T16:43:31.949Z,27.30
2022-08-16T16:46:02.910Z,27.30
2022-08-16T16:48:35.421Z,27.30
2022-08-16T16:51:09.377Z,27.20
2022-08-16T16:53:41.367Z,27.10
2022-08-16T16:56:20.289Z,27.00
2022-08-16T16:59:01.171Z,26.90
2022-08-16T17:01:57.065Z,26.70
2022-08-16T17:04:31.724Z,26.70
2022-08-16T17:07:01.600Z,26.50
2022-08-16T17:09:30.326Z,26.40
2022-08-16T17:12:05.081Z,26.30
2022-08-16T17:14:34.672Z,26.20
2022-08-16T17:17:08.506Z,26.10
2022-08-16T17:19:41.061Z,25.90
2022-08-16T17:22:14.744Z,25.80
2022-08-16T17:24:50.596Z,25.60
2022-08-16T17:27:33.930Z,25.50
2022-08-16T17:30:15.119Z,25.40
2022-08-16T17:32:54.463Z,25.20
2022-08-16T17:35:34.067Z,25.00
2022-08-16T17:38:04.734Z,24.90
2022-08-16T17:40:47.843Z,24.80
2022-08-16T17:43:28.363Z,24.60
2022-08-16T17:45:57.392Z,24.50
2022-08-16T17:51:05.855Z,24.30
2022-08-16T17:53:35.553Z,24.20
2022-08-16T17:56:06.610Z,24.00
2022-08-16T17:58:34.597Z,23.90
2022-08-16T18:01:11.238Z,23.80
2022-08-16T18:04:07.557Z,23.60
2022-08-16T18:06:31.717Z,23.50
2022-08-16T18:09:03.547Z,23.40
2022-08-16T18:11:34.058Z,23.30
2022-08-16T18:14:02.785Z,23.20
2022-08-16T18:16:30.898Z,23.10
2022-08-16T18:18:59.012Z,22.90
2022-08-16T18:21:45.584Z,22.80
2022-08-16T18:24:16.185Z,22.80
2022-08-16T18:26:44.389Z,22.60
2022-08-16T18:29:13.883Z,22.50
2022-08-16T18:31:42.024Z,22.40
2022-08-16T18:34:10.259Z,22.30
2022-08-16T18:36:38.596Z,22.20
2022-08-16T18:39:06.937Z,22.00
2022-08-16T18:41:37.331Z,21.90
2022-08-16T18:44:25.047Z,21.90
2022-08-16T18:46:55.026Z,21.70
2022-08-16T18:49:23.096Z,21.60
2022-08-16T18:51:51.180Z,21.50
2022-08-16T18:54:19.727Z,21.40
2022-08-16T18:56:55.984Z,21.30
2022-08-16T18:59:26.510Z,21.20
2022-08-16T19:02:00.534Z,21.20
2022-08-16T19:04:55.673Z,21.00
2022-08-16T19:07:21.186Z,20.90
2022-08-16T19:09:49.023Z,20.90
2022-08-16T19:12:38.295Z,20.70
2022-08-16T19:15:08.478Z,20.70
2022-08-16T19:17:40.074Z,20.60
2022-08-16T19:20:10.972Z,20.50
2022-08-16T19:25:47.198Z,20.30
2022-08-16T19:28:33.399Z,20.20
2022-08-16T19:31:12.130Z,20.20
2022-08-16T19:33:40.643Z,20.10
2022-08-16T19:36:30.463Z,20.00
2022-08-16T19:39:32.657Z,20.00
2022-08-16T19:42:11.772Z,19.90
2022-08-16T19:44:42.057Z,19.80
2022-08-16T19:47:10.839Z,19.70
2022-08-16T19:49:41.072Z,19.70
2022-08-16T19:52:15.149Z,19.60
2022-08-16T19:54:43.870Z,19.60
2022-08-16T19:57:12.885Z,19.50
2022-08-16T19:59:42.536Z,19.50
2022-08-16T20:02:35.594Z,19.40
2022-08-16T20:05:06.462Z,19.30
2022-08-16T20:07:34.827Z,19.30
2022-08-16T20:10:03.114Z,19.20
2022-08-16T20:12:31.317Z,19.20
2022-08-16T20:15:00.675Z,19.10
2022-08-16T20:17:28.811Z,19.10
2022-08-16T20:19:56.754Z,19.00
2022-08-16T20:22:51.712Z,19.00
2022-08-16T20:25:17.942Z,19.00
2022-08-16T20:27:47.301Z,18.90
2022-08-16T20:30:18.181Z,18.90
2022-08-16T20:32:47.350Z,18.80
2022-08-16T20:35:17.939Z,18.80
2022-08-16T20:37:48.226Z,18.70
2022-08-16T20:40:28.290Z,18.70
2022-08-16T20:43:06.581Z,18.60
2022-08-16T20:45:36.121Z,18.60
2022-08-16T20:48:19.232Z,18.50
2022-08-16T20:50:47.347Z,18.50
2022-08-16T20:53:15.338Z,18.50
2022-08-16T20:55:44.761Z,18.40
2022-08-16T20:58:12.689Z,18.40
2022-08-16T21:00:42.537Z,18.40
2022-08-16T21:03:12.245Z,18.30
2022-08-16T21:05:40.315Z,18.30
2022-08-16T21:08:50.463Z,18.30
2022-08-16T21:10:57.860Z,18.30
2022-08-16T21:13:26.875Z,18.20
2022-08-16T21:15:56.053Z,18.20
2022-08-16T21:18:24.164Z,18.10
2022-08-16T21:20:52.687Z,18.10
2022-08-16T21:23:21.174Z,18.00
2022-08-16T21:25:59.225Z,18.00
2022-08-16T21:28:40.644Z,17.90
2022-08-16T21:31:13.143Z,17.90
2022-08-16T21:33:42.697Z,17.80
2022-08-16T21:36:11.810Z,17.90
2022-08-16T21:38:40.531Z,17.80
2022-08-16T21:41:12.933Z,17.80
2022-08-16T21:43:41.503Z,17.80
2022-08-16T21:46:10.365Z,17.70
2022-08-16T21:48:40.702Z,17.70
2022-08-16T21:51:12.662Z,17.70
2022-08-16T21:53:41.618Z,17.70
2022-08-16T21:56:16.473Z,17.60
2022-08-16T21:58:45.578Z,17.60
2022-08-16T22:01:14.147Z,17.60
2022-08-16T22:03:45.484Z,17.60
2022-08-16T22:06:14.740Z,17.50
2022-08-16T22:08:50.080Z,17.50
2022-08-16T22:11:20.593Z,17.50
2022-08-16T22:13:51.275Z,17.50
2022-08-16T22:16:27.653Z,17.40
2022-08-16T22:18:57.072Z,17.40
2022-08-16T22:21:25.534Z,17.40
2022-08-16T22:23:56.852Z,17.30
2022-08-16T22:26:31.015Z,17.30
2022-08-16T22:29:00.750Z,17.30
2022-08-16T22:31:29.433Z,17.20
2022-08-16T22:33:58.998Z,17.20
2022-08-16T22:36:29.053Z,17.20
2022-08-16T22:38:58.719Z,17.20
2022-08-16T22:41:28.173Z,17.20
2022-08-16T22:43:56.804Z,17.20
2022-08-16T22:46:24.942Z,17.10
2022-08-16T22:48:53.122Z,17.10
2022-08-16T22:51:24.716Z,17.10
2022-08-16T22:53:54.032Z,17.10
2022-08-16T22:56:23.237Z,17.00
2022-08-16T22:58:51.890Z,17.00
2022-08-16T23:01:22.610Z,17.00
2022-08-16T23:03:51.368Z,17.00
2022-08-16T23:06:19.673Z,17.00
2022-08-16T23:08:49.086Z,16.90
2022-08-16T23:11:21.202Z,16.90
2022-08-16T23:13:53.021Z,16.90
2022-08-16T23:16:28.756Z,16.90
2022-08-16T23:19:02.041Z,16.90
2022-08-16T23:21:30.158Z,16.80
2022-08-16T23:24:00.072Z,16.80
2022-08-16T23:26:36.510Z,16.80
2022-08-16T23:29:24.855Z,16.80
2022-08-16T23:31:59.933Z,16.80
2022-08-16T23:34:29.425Z,16.70
2022-08-16T23:36:57.889Z,16.70
2022-08-16T23:39:27.629Z,16.70
2022-08-16T23:41:55.793Z,16.60
2022-08-16T23:44:42.347Z,16.60
2022-08-16T23:47:12.620Z,16.60
2022-08-16T23:49:56.135Z,16.60
2022-08-16T23:52:53.709Z,16.60
2022-08-16T23:55:17.737Z,16.50
2022-08-16T23:57:46.344Z,16.50
